Skip to main content Skip to accessibility
This website is not compatible with your web browser. You should install a newer browser. If you live in Jersey and need help upgrading call the States of Jersey web team on 440099.
gov.je

L'înformâtion et les sèrvices publyis pouor I'Île dé Jèrri

Local METARs

METAR EGJJ 290650Z 25014KT 9999 SCT015 15/12 Q0996 NOSIG

METAR EGJB 290650Z 24012KT 9999 SCT011 14/12 Q0996

METAR EGJA 290650Z 25008KT 9999 FEW002 SCT004 BKN017 13/13 Q0996

METAR LFRD 290630Z AUTO 22008KT 9999 FEW043 OVC086 14/11 Q0998 NOSIG

METAR LFRC 290630Z AUTO 23008KT 9999 BKN007 BKN011 OVC019 13/12 Q0996 TEMPO 4000 RA BKN004

 

 

 

​Times are in Greenwich Mean Time (GMT) and not British Summer Time (BST). They will be one hour different during BST.

Back to top
rating button